Metar Aviation Weather Data KTRI

79°F Temp
46°F Dewpoint
% Humidity
Temperature
15 MPH
24 KM/H
13 KTS
230°
South West

Wind Speed
Partly Cloudy
Conditions
Pressure 1012.22 (hPa) - 29.89 (in)
Visibility 9.9 (mi) - 16.0 (km)

Current Conditions
KTRI
Metar :KTRI 091753Z 23013G22KT 10SM FEW120 SCT200 BKN250 26/08 A2989 RMK AO2 PK WND 20026/1722 SLP100 T02610078 10261 20117 58025
Sun 9th May 13:53 pm

  Metar Aviation API Data Provided by https://www.checkwx.com/ PHP scripts by weather34.com ©2021